sensor_id;sensor_type;location;lat;lon;timestamp;temperature;humidity
70534;SHT31;58088;51.186;17.130;2022-11-20T00:01:28;-2.97;70.70
70534;SHT31;58088;51.186;17.130;2022-11-20T00:03:56;-2.94;70.72
70534;SHT31;58088;51.186;17.130;2022-11-20T00:06:24;-2.96;70.88
70534;SHT31;58088;51.186;17.130;2022-11-20T00:08:54;-3.00;71.06
70534;SHT31;58088;51.186;17.130;2022-11-20T00:11:26;-2.97;71.14
70534;SHT31;58088;51.186;17.130;2022-11-20T00:13:56;-2.97;71.23
70534;SHT31;58088;51.186;17.130;2022-11-20T00:16:26;-2.96;71.31
70534;SHT31;58088;51.186;17.130;2022-11-20T00:18:55;-2.97;71.27
70534;SHT31;58088;51.186;17.130;2022-11-20T00:21:23;-2.99;71.20
70534;SHT31;58088;51.186;17.130;2022-11-20T00:23:52;-2.99;71.16
70534;SHT31;58088;51.186;17.130;2022-11-20T00:26:21;-3.01;71.09
70534;SHT31;58088;51.186;17.130;2022-11-20T00:28:53;-3.05;71.00
70534;SHT31;58088;51.186;17.130;2022-11-20T00:31:24;-3.07;71.06
70534;SHT31;58088;51.186;17.130;2022-11-20T00:33:52;-3.08;71.10
70534;SHT31;58088;51.186;17.130;2022-11-20T00:36:19;-3.06;71.10
70534;SHT31;58088;51.186;17.130;2022-11-20T00:38:56;-3.02;71.10
70534;SHT31;58088;51.186;17.130;2022-11-20T00:41:24;-3.01;70.94
70534;SHT31;58088;51.186;17.130;2022-11-20T00:43:53;-3.05;70.88
70534;SHT31;58088;51.186;17.130;2022-11-20T00:46:22;-3.08;71.12
70534;SHT31;58088;51.186;17.130;2022-11-20T00:48:51;-3.09;71.20
70534;SHT31;58088;51.186;17.130;2022-11-20T00:51:18;-3.15;71.19
70534;SHT31;58088;51.186;17.130;2022-11-20T00:53:47;-3.19;71.23
70534;SHT31;58088;51.186;17.130;2022-11-20T00:56:15;-3.24;71.46
70534;SHT31;58088;51.186;17.130;2022-11-20T00:58:47;-3.26;71.45
70534;SHT31;58088;51.186;17.130;2022-11-20T01:01:18;-3.29;71.27
70534;SHT31;58088;51.186;17.130;2022-11-20T01:03:50;-3.33;71.21
70534;SHT31;58088;51.186;17.130;2022-11-20T01:06:19;-3.32;71.30
70534;SHT31;58088;51.186;17.130;2022-11-20T01:08:48;-3.32;71.38
70534;SHT31;58088;51.186;17.130;2022-11-20T01:11:17;-3.27;71.45
70534;SHT31;58088;51.186;17.130;2022-11-20T01:13:51;-3.19;71.50
70534;SHT31;58088;51.186;17.130;2022-11-20T01:16:25;-3.09;71.46
70534;SHT31;58088;51.186;17.130;2022-11-20T01:18:58;-3.03;71.39
70534;SHT31;58088;51.186;17.130;2022-11-20T01:21:27;-2.98;71.40
70534;SHT31;58088;51.186;17.130;2022-11-20T01:23:59;-2.94;71.30
70534;SHT31;58088;51.186;17.130;2022-11-20T01:26:27;-2.96;71.20
70534;SHT31;58088;51.186;17.130;2022-11-20T01:28:57;-2.98;71.24
70534;SHT31;58088;51.186;17.130;2022-11-20T01:31:25;-3.02;71.23
70534;SHT31;58088;51.186;17.130;2022-11-20T01:33:58;-3.06;71.37
70534;SHT31;58088;51.186;17.130;2022-11-20T01:36:33;-3.10;71.43
70534;SHT31;58088;51.186;17.130;2022-11-20T01:39:03;-3.13;71.50
70534;SHT31;58088;51.186;17.130;2022-11-20T01:41:35;-3.14;71.53
70534;SHT31;58088;51.186;17.130;2022-11-20T01:44:22;-3.13;71.56
70534;SHT31;58088;51.186;17.130;2022-11-20T01:47:13;-3.11;71.69
70534;SHT31;58088;51.186;17.130;2022-11-20T01:49:49;-3.09;71.76
70534;SHT31;58088;51.186;17.130;2022-11-20T01:52:30;-3.06;71.80
70534;SHT31;58088;51.186;17.130;2022-11-20T01:55:31;-3.08;71.88
70534;SHT31;58088;51.186;17.130;2022-11-20T01:58:03;-3.14;72.00
70534;SHT31;58088;51.186;17.130;2022-11-20T02:00:30;-3.25;72.19
70534;SHT31;58088;51.186;17.130;2022-11-20T02:03:16;-3.34;72.48
70534;SHT31;58088;51.186;17.130;2022-11-20T02:05:53;-3.37;72.65
70534;SHT31;58088;51.186;17.130;2022-11-20T02:08:26;-3.40;72.85
70534;SHT31;58088;51.186;17.130;2022-11-20T02:10:54;-3.38;72.79
70534;SHT31;58088;51.186;17.130;2022-11-20T02:13:20;-3.32;72.76
70534;SHT31;58088;51.186;17.130;2022-11-20T02:16:04;-3.29;72.68
70534;SHT31;58088;51.186;17.130;2022-11-20T02:18:44;-3.22;72.64
70534;SHT31;58088;51.186;17.130;2022-11-20T02:21:23;-3.19;72.67
70534;SHT31;58088;51.186;17.130;2022-11-20T02:24:06;-3.14;72.79
70534;SHT31;58088;51.186;17.130;2022-11-20T02:26:41;-3.08;72.69
70534;SHT31;58088;51.186;17.130;2022-11-20T02:29:32;-3.07;72.60
70534;SHT31;58088;51.186;17.130;2022-11-20T02:32:06;-3.05;72.54
70534;SHT31;58088;51.186;17.130;2022-11-20T02:34:32;-3.05;72.50
70534;SHT31;58088;51.186;17.130;2022-11-20T02:36:58;-3.05;72.48
70534;SHT31;58088;51.186;17.130;2022-11-20T02:39:25;-3.10;72.40
70534;SHT31;58088;51.186;17.130;2022-11-20T02:41:53;-3.14;72.40
70534;SHT31;58088;51.186;17.130;2022-11-20T02:44:21;-3.17;72.45
70534;SHT31;58088;51.186;17.130;2022-11-20T02:46:47;-3.21;72.49
70534;SHT31;58088;51.186;17.130;2022-11-20T02:49:13;-3.24;72.40
70534;SHT31;58088;51.186;17.130;2022-11-20T02:51:39;-3.28;72.48
70534;SHT31;58088;51.186;17.130;2022-11-20T02:54:05;-3.31;72.57
70534;SHT31;58088;51.186;17.130;2022-11-20T02:56:31;-3.30;72.61
70534;SHT31;58088;51.186;17.130;2022-11-20T02:58:57;-3.32;72.74
70534;SHT31;58088;51.186;17.130;2022-11-20T03:01:23;-3.27;72.80
70534;SHT31;58088;51.186;17.130;2022-11-20T03:03:50;-3.21;72.71
70534;SHT31;58088;51.186;17.130;2022-11-20T03:06:17;-3.15;72.54
70534;SHT31;58088;51.186;17.130;2022-11-20T03:08:44;-3.11;72.44
70534;SHT31;58088;51.186;17.130;2022-11-20T03:11:10;-3.08;72.27
70534;SHT31;58088;51.186;17.130;2022-11-20T03:13:36;-3.10;72.06
70534;SHT31;58088;51.186;17.130;2022-11-20T03:16:10;-3.14;71.93
70534;SHT31;58088;51.186;17.130;2022-11-20T03:18:41;-3.18;71.90
70534;SHT31;58088;51.186;17.130;2022-11-20T03:21:08;-3.22;71.84
70534;SHT31;58088;51.186;17.130;2022-11-20T03:23:36;-3.27;71.78
70534;SHT31;58088;51.186;17.130;2022-11-20T03:26:17;-3.31;71.67
70534;SHT31;58088;51.186;17.130;2022-11-20T03:28:47;-3.37;71.44
70534;SHT31;58088;51.186;17.130;2022-11-20T03:31:36;-3.44;71.45
70534;SHT31;58088;51.186;17.130;2022-11-20T03:34:08;-3.50;71.55
70534;SHT31;58088;51.186;17.130;2022-11-20T03:36:40;-3.55;71.59
70534;SHT31;58088;51.186;17.130;2022-11-20T03:39:08;-3.57;71.60
70534;SHT31;58088;51.186;17.130;2022-11-20T03:41:39;-3.58;71.60
70534;SHT31;58088;51.186;17.130;2022-11-20T03:44:08;-3.57;71.68
70534;SHT31;58088;51.186;17.130;2022-11-20T03:46:37;-3.60;71.82
70534;SHT31;58088;51.186;17.130;2022-11-20T03:49:03;-3.61;71.98
70534;SHT31;58088;51.186;17.130;2022-11-20T03:51:31;-3.59;72.00
70534;SHT31;58088;51.186;17.130;2022-11-20T03:54:02;-3.55;71.92
70534;SHT31;58088;51.186;17.130;2022-11-20T03:56:33;-3.56;71.85
70534;SHT31;58088;51.186;17.130;2022-11-20T03:59:03;-3.60;71.74
70534;SHT31;58088;51.186;17.130;2022-11-20T04:01:31;-3.66;71.76
70534;SHT31;58088;51.186;17.130;2022-11-20T04:04:05;-3.72;71.70
70534;SHT31;58088;51.186;17.130;2022-11-20T04:06:36;-3.79;71.72
70534;SHT31;58088;51.186;17.130;2022-11-20T04:09:04;-3.84;71.80
70534;SHT31;58088;51.186;17.130;2022-11-20T04:11:32;-3.90;71.81
70534;SHT31;58088;51.186;17.130;2022-11-20T04:14:02;-3.96;71.89
70534;SHT31;58088;51.186;17.130;2022-11-20T04:16:33;-4.00;71.94
70534;SHT31;58088;51.186;17.130;2022-11-20T04:19:03;-4.01;72.09
70534;SHT31;58088;51.186;17.130;2022-11-20T04:21:35;-3.99;72.14
70534;SHT31;58088;51.186;17.130;2022-11-20T04:24:02;-3.96;72.10
70534;SHT31;58088;51.186;17.130;2022-11-20T04:26:29;-3.90;72.10
70534;SHT31;58088;51.186;17.130;2022-11-20T04:28:56;-3.82;72.08
70534;SHT31;58088;51.186;17.130;2022-11-20T04:31:24;-3.77;71.92
70534;SHT31;58088;51.186;17.130;2022-11-20T04:33:53;-3.76;71.59
70534;SHT31;58088;51.186;17.130;2022-11-20T04:36:24;-3.79;71.58
70534;SHT31;58088;51.186;17.130;2022-11-20T04:38:52;-3.68;71.57
70534;SHT31;58088;51.186;17.130;2022-11-20T04:41:21;-3.58;71.40
70534;SHT31;58088;51.186;17.130;2022-11-20T04:43:54;-3.52;71.22
70534;SHT31;58088;51.186;17.130;2022-11-20T04:46:29;-3.42;71.08
70534;SHT31;58088;51.186;17.130;2022-11-20T04:49:05;-3.40;70.67
70534;SHT31;58088;51.186;17.130;2022-11-20T04:51:33;-3.50;70.51
70534;SHT31;58088;51.186;17.130;2022-11-20T04:54:00;-3.51;70.52
70534;SHT31;58088;51.186;17.130;2022-11-20T04:56:27;-3.55;70.39
70534;SHT31;58088;51.186;17.130;2022-11-20T04:58:53;-3.60;70.40
70534;SHT31;58088;51.186;17.130;2022-11-20T05:01:20;-3.66;70.40
70534;SHT31;58088;51.186;17.130;2022-11-20T05:03:49;-3.78;70.31
70534;SHT31;58088;51.186;17.130;2022-11-20T05:06:16;-3.90;70.32
70534;SHT31;58088;51.186;17.130;2022-11-20T05:08:45;-3.98;70.32
70534;SHT31;58088;51.186;17.130;2022-11-20T05:11:16;-4.07;70.48
70534;SHT31;58088;51.186;17.130;2022-11-20T05:13:45;-4.15;70.69
70534;SHT31;58088;51.186;17.130;2022-11-20T05:16:13;-4.20;70.84
70534;SHT31;58088;51.186;17.130;2022-11-20T05:18:46;-4.22;70.90
70534;SHT31;58088;51.186;17.130;2022-11-20T05:21:13;-4.25;70.91
70534;SHT31;58088;51.186;17.130;2022-11-20T05:23:40;-4.28;70.96
70534;SHT31;58088;51.186;17.130;2022-11-20T05:26:11;-4.32;70.99
70534;SHT31;58088;51.186;17.130;2022-11-20T05:28:41;-4.32;71.07
70534;SHT31;58088;51.186;17.130;2022-11-20T05:31:09;-4.28;71.00
70534;SHT31;58088;51.186;17.130;2022-11-20T05:33:41;-4.23;71.06
70534;SHT31;58088;51.186;17.130;2022-11-20T05:36:10;-4.13;71.08
70534;SHT31;58088;51.186;17.130;2022-11-20T05:38:38;-4.06;71.06
70534;SHT31;58088;51.186;17.130;2022-11-20T05:41:06;-3.97;71.02
70534;SHT31;58088;51.186;17.130;2022-11-20T05:43:35;-3.91;71.00
70534;SHT31;58088;51.186;17.130;2022-11-20T05:46:05;-3.85;70.95
70534;SHT31;58088;51.186;17.130;2022-11-20T05:48:32;-3.80;70.83
70534;SHT31;58088;51.186;17.130;2022-11-20T05:51:01;-3.72;70.69
70534;SHT31;58088;51.186;17.130;2022-11-20T05:53:31;-3.60;70.50
70534;SHT31;58088;51.186;17.130;2022-11-20T05:55:59;-3.51;70.27
70534;SHT31;58088;51.186;17.130;2022-11-20T05:58:28;-3.48;69.96
70534;SHT31;58088;51.186;17.130;2022-11-20T06:01:03;-3.50;69.90
70534;SHT31;58088;51.186;17.130;2022-11-20T06:03:39;-3.54;69.88
70534;SHT31;58088;51.186;17.130;2022-11-20T06:06:09;-3.59;69.95
70534;SHT31;58088;51.186;17.130;2022-11-20T06:08:35;-3.55;70.10
70534;SHT31;58088;51.186;17.130;2022-11-20T06:11:05;-3.51;69.93
70534;SHT31;58088;51.186;17.130;2022-11-20T06:13:33;-3.53;69.88
70534;SHT31;58088;51.186;17.130;2022-11-20T06:16:00;-3.53;69.76
70534;SHT31;58088;51.186;17.130;2022-11-20T06:18:27;-3.55;69.62
70534;SHT31;58088;51.186;17.130;2022-11-20T06:21:27;-3.56;69.61
70534;SHT31;58088;51.186;17.130;2022-11-20T06:23:48;-3.63;69.55
70534;SHT31;58088;51.186;17.130;2022-11-20T06:26:18;-3.74;69.55
70534;SHT31;58088;51.186;17.130;2022-11-20T06:28:48;-3.78;69.59
70534;SHT31;58088;51.186;17.130;2022-11-20T06:31:17;-3.88;69.64
70534;SHT31;58088;51.186;17.130;2022-11-20T06:33:46;-4.04;69.86
70534;SHT31;58088;51.186;17.130;2022-11-20T06:36:15;-4.17;70.20
70534;SHT31;58088;51.186;17.130;2022-11-20T06:38:44;-4.26;70.50
70534;SHT31;58088;51.186;17.130;2022-11-20T06:41:14;-4.30;70.75
70534;SHT31;58088;51.186;17.130;2022-11-20T06:43:50;-4.32;70.96
70534;SHT31;58088;51.186;17.130;2022-11-20T06:46:18;-4.35;71.16
70534;SHT31;58088;51.186;17.130;2022-11-20T06:48:46;-4.34;71.34
70534;SHT31;58088;51.186;17.130;2022-11-20T06:51:13;-4.25;71.50
70534;SHT31;58088;51.186;17.130;2022-11-20T06:53:41;-4.14;71.59
70534;SHT31;58088;51.186;17.130;2022-11-20T06:56:07;-4.04;71.60
70534;SHT31;58088;51.186;17.130;2022-11-20T06:58:34;-3.92;71.60
70534;SHT31;58088;51.186;17.130;2022-11-20T07:01:06;-3.77;71.68
70534;SHT31;58088;51.186;17.130;2022-11-20T07:03:38;-3.65;71.63
70534;SHT31;58088;51.186;17.130;2022-11-20T07:06:06;-3.56;71.60
70534;SHT31;58088;51.186;17.130;2022-11-20T07:08:33;-3.47;71.84
70534;SHT31;58088;51.186;17.130;2022-11-20T07:11:01;-3.40;71.90
70534;SHT31;58088;51.186;17.130;2022-11-20T07:13:31;-3.21;71.95
70534;SHT31;58088;51.186;17.130;2022-11-20T07:16:01;-2.99;71.87
70534;SHT31;58088;51.186;17.130;2022-11-20T07:18:32;-2.84;71.71
70534;SHT31;58088;51.186;17.130;2022-11-20T07:21:05;-2.73;71.54
70534;SHT31;58088;51.186;17.130;2022-11-20T07:23:35;-2.60;71.38
70534;SHT31;58088;51.186;17.130;2022-11-20T07:26:16;-2.51;71.35
70534;SHT31;58088;51.186;17.130;2022-11-20T07:28:44;-2.45;71.35
70534;SHT31;58088;51.186;17.130;2022-11-20T07:31:10;-2.38;71.33
70534;SHT31;58088;51.186;17.130;2022-11-20T07:33:38;-2.26;71.34
70534;SHT31;58088;51.186;17.130;2022-11-20T07:36:04;-2.16;71.29
70534;SHT31;58088;51.186;17.130;2022-11-20T07:38:30;-2.10;71.22
70534;SHT31;58088;51.186;17.130;2022-11-20T07:40:57;-2.02;71.20
70534;SHT31;58088;51.186;17.130;2022-11-20T07:43:24;-1.96;71.07
70534;SHT31;58088;51.186;17.130;2022-11-20T07:45:51;-1.92;71.00
70534;SHT31;58088;51.186;17.130;2022-11-20T07:48:17;-1.87;70.92
70534;SHT31;58088;51.186;17.130;2022-11-20T07:50:43;-1.78;70.87
70534;SHT31;58088;51.186;17.130;2022-11-20T07:53:09;-1.73;70.76
70534;SHT31;58088;51.186;17.130;2022-11-20T07:55:35;-1.67;70.73
70534;SHT31;58088;51.186;17.130;2022-11-20T07:58:01;-1.55;70.65
70534;SHT31;58088;51.186;17.130;2022-11-20T08:00:27;-1.49;70.51
70534;SHT31;58088;51.186;17.130;2022-11-20T08:02:54;-1.40;70.60
70534;SHT31;58088;51.186;17.130;2022-11-20T08:05:20;-1.32;70.52
70534;SHT31;58088;51.186;17.130;2022-11-20T08:07:46;-1.22;70.37
70534;SHT31;58088;51.186;17.130;2022-11-20T08:10:13;-1.16;70.25
70534;SHT31;58088;51.186;17.130;2022-11-20T08:12:47;-1.09;70.20
70534;SHT31;58088;51.186;17.130;2022-11-20T08:15:34;-0.99;70.15
70534;SHT31;58088;51.186;17.130;2022-11-20T08:18:12;-0.91;70.10
70534;SHT31;58088;51.186;17.130;2022-11-20T08:20:38;-0.84;70.10
70534;SHT31;58088;51.186;17.130;2022-11-20T08:23:04;-0.79;69.99
70534;SHT31;58088;51.186;17.130;2022-11-20T08:25:33;-0.80;69.91
70534;SHT31;58088;51.186;17.130;2022-11-20T08:28:02;-0.75;69.92
70534;SHT31;58088;51.186;17.130;2022-11-20T08:30:32;-0.72;70.03
70534;SHT31;58088;51.186;17.130;2022-11-20T08:33:03;-0.65;70.05
70534;SHT31;58088;51.186;17.130;2022-11-20T08:35:34;-0.54;70.00
70534;SHT31;58088;51.186;17.130;2022-11-20T08:38:03;-0.44;69.85
70534;SHT31;58088;51.186;17.130;2022-11-20T08:40:31;-0.37;69.69
70534;SHT31;58088;51.186;17.130;2022-11-20T08:42:58;-0.36;69.59
70534;SHT31;58088;51.186;17.130;2022-11-20T08:45:24;-0.32;69.51
70534;SHT31;58088;51.186;17.130;2022-11-20T08:47:51;-0.26;69.44
70534;SHT31;58088;51.186;17.130;2022-11-20T08:50:17;-0.18;69.21
70534;SHT31;58088;51.186;17.130;2022-11-20T08:52:43;-0.11;69.10
70534;SHT31;58088;51.186;17.130;2022-11-20T08:55:10;-0.05;69.01
70534;SHT31;58088;51.186;17.130;2022-11-20T08:57:37;0.01;68.96
70534;SHT31;58088;51.186;17.130;2022-11-20T09:00:05;0.04;68.82
70534;SHT31;58088;51.186;17.130;2022-11-20T09:02:33;0.08;68.77
70534;SHT31;58088;51.186;17.130;2022-11-20T09:05:02;0.15;68.72
70534;SHT31;58088;51.186;17.130;2022-11-20T09:07:32;0.19;68.47
70534;SHT31;58088;51.186;17.130;2022-11-20T09:09:59;0.31;68.49
70534;SHT31;58088;51.186;17.130;2022-11-20T09:12:25;0.42;68.31
70534;SHT31;58088;51.186;17.130;2022-11-20T09:14:52;0.49;67.94
70534;SHT31;58088;51.186;17.130;2022-11-20T09:17:19;0.56;67.95
70534;SHT31;58088;51.186;17.130;2022-11-20T09:19:46;0.60;67.85
70534;SHT31;58088;51.186;17.130;2022-11-20T09:22:12;0.58;67.81
70534;SHT31;58088;51.186;17.130;2022-11-20T09:24:38;0.63;67.84
70534;SHT31;58088;51.186;17.130;2022-11-20T09:27:04;0.67;67.70
70534;SHT31;58088;51.186;17.130;2022-11-20T09:29:31;0.74;67.72
70534;SHT31;58088;51.186;17.130;2022-11-20T09:31:57;0.78;67.49
70534;SHT31;58088;51.186;17.130;2022-11-20T09:34:23;0.86;67.42
70534;SHT31;58088;51.186;17.130;2022-11-20T09:36:49;0.97;67.45
70534;SHT31;58088;51.186;17.130;2022-11-20T09:39:15;1.08;67.47
70534;SHT31;58088;51.186;17.130;2022-11-20T09:42:03;1.17;67.40
70534;SHT31;58088;51.186;17.130;2022-11-20T09:53:24;1.48;66.49
70534;SHT31;58088;51.186;17.130;2022-11-20T09:56:03;1.56;66.29
70534;SHT31;58088;51.186;17.130;2022-11-20T09:58:49;1.63;66.23
70534;SHT31;58088;51.186;17.130;2022-11-20T10:01:21;1.63;66.01
70534;SHT31;58088;51.186;17.130;2022-11-20T10:03:57;1.63;65.99
70534;SHT31;58088;51.186;17.130;2022-11-20T10:06:40;1.60;66.10
70534;SHT31;58088;51.186;17.130;2022-11-20T10:09:22;1.60;66.02
70534;SHT31;58088;51.186;17.130;2022-11-20T10:12:06;1.69;65.99
70534;SHT31;58088;51.186;17.130;2022-11-20T10:21:23;1.92;65.51
70534;SHT31;58088;51.186;17.130;2022-11-20T10:30:29;2.04;64.49
70534;SHT31;58088;51.186;17.130;2022-11-20T10:33:04;2.11;64.25
70534;SHT31;58088;51.186;17.130;2022-11-20T10:35:49;2.09;63.81
70534;SHT31;58088;51.186;17.130;2022-11-20T10:38:48;1.97;63.46
70534;SHT31;58088;51.186;17.130;2022-11-20T10:41:27;1.98;63.46
70534;SHT31;58088;51.186;17.130;2022-11-20T10:44:02;2.05;63.49
70534;SHT31;58088;51.186;17.130;2022-11-20T10:46:45;2.16;63.15
70534;SHT31;58088;51.186;17.130;2022-11-20T10:49:15;2.27;63.03
70534;SHT31;58088;51.186;17.130;2022-11-20T10:55:23;2.40;62.20
70534;SHT31;58088;51.186;17.130;2022-11-20T11:00:36;2.51;61.59
70534;SHT31;58088;51.186;17.130;2022-11-20T11:03:02;2.57;61.61
70534;SHT31;58088;51.186;17.130;2022-11-20T11:05:42;2.66;61.66
70534;SHT31;58088;51.186;17.130;2022-11-20T11:08:17;2.77;61.76
70534;SHT31;58088;51.186;17.130;2022-11-20T11:10:55;2.84;61.56
70534;SHT31;58088;51.186;17.130;2022-11-20T11:13:28;2.91;61.68
70534;SHT31;58088;51.186;17.130;2022-11-20T11:15:56;2.96;61.71
70534;SHT31;58088;51.186;17.130;2022-11-20T11:21:03;2.95;61.28
70534;SHT31;58088;51.186;17.130;2022-11-20T11:23:40;2.91;61.10
70534;SHT31;58088;51.186;17.130;2022-11-20T11:26:19;2.86;60.96
70534;SHT31;58088;51.186;17.130;2022-11-20T11:31:30;2.84;61.03
70534;SHT31;58088;51.186;17.130;2022-11-20T11:34:04;2.86;60.57
70534;SHT31;58088;51.186;17.130;2022-11-20T11:36:34;2.90;60.40
70534;SHT31;58088;51.186;17.130;2022-11-20T11:39:02;2.98;60.46
70534;SHT31;58088;51.186;17.130;2022-11-20T11:41:32;3.04;60.58
70534;SHT31;58088;51.186;17.130;2022-11-20T11:44:22;3.09;60.46
70534;SHT31;58088;51.186;17.130;2022-11-20T11:47:24;3.11;60.02
70534;SHT31;58088;51.186;17.130;2022-11-20T11:53:21;3.09;59.40
70534;SHT31;58088;51.186;17.130;2022-11-20T11:55:38;3.16;59.48
70534;SHT31;58088;51.186;17.130;2022-11-20T11:58:16;3.21;59.38
70534;SHT31;58088;51.186;17.130;2022-11-20T12:00:54;3.22;59.10
70534;SHT31;58088;51.186;17.130;2022-11-20T12:03:39;3.24;59.07
70534;SHT31;58088;51.186;17.130;2022-11-20T12:06:15;3.28;59.26
70534;SHT31;58088;51.186;17.130;2022-11-20T12:09:02;3.29;59.11
70534;SHT31;58088;51.186;17.130;2022-11-20T12:14:17;3.24;58.51
70534;SHT31;58088;51.186;17.130;2022-11-20T12:16:56;3.22;58.56
70534;SHT31;58088;51.186;17.130;2022-11-20T12:19:23;3.20;58.63
70534;SHT31;58088;51.186;17.130;2022-11-20T12:25:07;3.23;58.64
70534;SHT31;58088;51.186;17.130;2022-11-20T12:27:48;3.27;58.81
70534;SHT31;58088;51.186;17.130;2022-11-20T12:39:35;3.27;59.00
70534;SHT31;58088;51.186;17.130;2022-11-20T12:45:43;3.26;58.96
70534;SHT31;58088;51.186;17.130;2022-11-20T12:48:43;3.27;59.04
70534;SHT31;58088;51.186;17.130;2022-11-20T12:52:10;3.30;58.98
70534;SHT31;58088;51.186;17.130;2022-11-20T12:55:30;3.31;59.02
70534;SHT31;58088;51.186;17.130;2022-11-20T13:03:58;3.27;59.03
70534;SHT31;58088;51.186;17.130;2022-11-20T13:06:52;3.27;58.93
70534;SHT31;58088;51.186;17.130;2022-11-20T13:09:20;3.24;59.01
70534;SHT31;58088;51.186;17.130;2022-11-20T13:12:06;3.22;59.19
70534;SHT31;58088;51.186;17.130;2022-11-20T13:14:47;3.24;59.36
70534;SHT31;58088;51.186;17.130;2022-11-20T13:18:13;3.22;59.37
70534;SHT31;58088;51.186;17.130;2022-11-20T13:20:26;3.21;59.50
70534;SHT31;58088;51.186;17.130;2022-11-20T13:22:55;3.23;59.51
70534;SHT31;58088;51.186;17.130;2022-11-20T13:27:53;3.20;59.78
70534;SHT31;58088;51.186;17.130;2022-11-20T13:30:22;3.18;59.72
70534;SHT31;58088;51.186;17.130;2022-11-20T13:33:02;3.21;59.73
70534;SHT31;58088;51.186;17.130;2022-11-20T13:35:58;3.26;59.77
70534;SHT31;58088;51.186;17.130;2022-11-20T13:38:27;3.25;59.80
70534;SHT31;58088;51.186;17.130;2022-11-20T13:41:31;3.22;59.83
70534;SHT31;58088;51.186;17.130;2022-11-20T13:46:51;3.16;59.95
70534;SHT31;58088;51.186;17.130;2022-11-20T13:52:04;3.12;60.20
70534;SHT31;58088;51.186;17.130;2022-11-20T14:00:50;3.05;60.32
70534;SHT31;58088;51.186;17.130;2022-11-20T14:03:25;3.06;60.35
70534;SHT31;58088;51.186;17.130;2022-11-20T14:06:05;3.06;60.34
70534;SHT31;58088;51.186;17.130;2022-11-20T14:08:52;3.02;60.28
70534;SHT31;58088;51.186;17.130;2022-11-20T14:11:20;2.95;60.20
70534;SHT31;58088;51.186;17.130;2022-11-20T14:16:27;2.89;60.23
70534;SHT31;58088;51.186;17.130;2022-11-20T14:19:17;2.87;60.21
70534;SHT31;58088;51.186;17.130;2022-11-20T14:21:47;2.89;60.20
70534;SHT31;58088;51.186;17.130;2022-11-20T14:24:18;2.89;60.04
70534;SHT31;58088;51.186;17.130;2022-11-20T14:26:48;2.90;59.97
70534;SHT31;58088;51.186;17.130;2022-11-20T14:29:36;2.91;59.88
70534;SHT31;58088;51.186;17.130;2022-11-20T14:32:04;2.89;59.66
70534;SHT31;58088;51.186;17.130;2022-11-20T14:34:32;2.87;59.63
70534;SHT31;58088;51.186;17.130;2022-11-20T14:37:09;2.89;59.64
70534;SHT31;58088;51.186;17.130;2022-11-20T14:39:43;2.90;59.65
70534;SHT31;58088;51.186;17.130;2022-11-20T14:42:22;2.91;59.56
70534;SHT31;58088;51.186;17.130;2022-11-20T14:44:54;2.88;59.54
70534;SHT31;58088;51.186;17.130;2022-11-20T14:47:24;2.85;59.56
70534;SHT31;58088;51.186;17.130;2022-11-20T14:49:53;2.80;59.66
70534;SHT31;58088;51.186;17.130;2022-11-20T14:52:23;2.72;59.75
70534;SHT31;58088;51.186;17.130;2022-11-20T14:54:55;2.61;59.93
70534;SHT31;58088;51.186;17.130;2022-11-20T14:57:30;2.50;60.11
70534;SHT31;58088;51.186;17.130;2022-11-20T15:02:33;2.38;60.46
70534;SHT31;58088;51.186;17.130;2022-11-20T15:05:00;2.33;60.64
70534;SHT31;58088;51.186;17.130;2022-11-20T15:07:31;2.27;60.77
70534;SHT31;58088;51.186;17.130;2022-11-20T15:12:30;2.11;61.21
70534;SHT31;58088;51.186;17.130;2022-11-20T15:15:01;2.03;61.35
70534;SHT31;58088;51.186;17.130;2022-11-20T15:17:29;1.93;61.47
70534;SHT31;58088;51.186;17.130;2022-11-20T15:19:58;1.87;61.60
70534;SHT31;58088;51.186;17.130;2022-11-20T15:22:27;1.79;61.61
70534;SHT31;58088;51.186;17.130;2022-11-20T15:24:53;1.73;61.78
70534;SHT31;58088;51.186;17.130;2022-11-20T15:27:20;1.63;62.03
70534;SHT31;58088;51.186;17.130;2022-11-20T15:29:46;1.55;62.20
70534;SHT31;58088;51.186;17.130;2022-11-20T15:32:12;1.47;62.28
70534;SHT31;58088;51.186;17.130;2022-11-20T15:34:38;1.41;62.30
70534;SHT31;58088;51.186;17.130;2022-11-20T15:37:05;1.35;62.39
70534;SHT31;58088;51.186;17.130;2022-11-20T15:39:31;1.30;62.56
70534;SHT31;58088;51.186;17.130;2022-11-20T15:41:57;1.27;62.74
70534;SHT31;58088;51.186;17.130;2022-11-20T15:44:23;1.26;62.94
70534;SHT31;58088;51.186;17.130;2022-11-20T15:46:49;1.27;63.02
70534;SHT31;58088;51.186;17.130;2022-11-20T15:49:16;1.26;63.07
70534;SHT31;58088;51.186;17.130;2022-11-20T15:51:44;1.24;63.06
70534;SHT31;58088;51.186;17.130;2022-11-20T15:54:14;1.22;63.25
70534;SHT31;58088;51.186;17.130;2022-11-20T15:56:45;1.19;63.34
70534;SHT31;58088;51.186;17.130;2022-11-20T15:59:13;1.15;63.29
70534;SHT31;58088;51.186;17.130;2022-11-20T16:01:42;1.13;63.23
70534;SHT31;58088;51.186;17.130;2022-11-20T16:04:10;1.08;63.20
70534;SHT31;58088;51.186;17.130;2022-11-20T16:06:38;1.01;63.24
70534;SHT31;58088;51.186;17.130;2022-11-20T16:09:05;0.95;63.30
70534;SHT31;58088;51.186;17.130;2022-11-20T16:11:32;0.88;63.41
70534;SHT31;58088;51.186;17.130;2022-11-20T16:14:02;0.81;63.51
70534;SHT31;58088;51.186;17.130;2022-11-20T16:16:48;0.71;63.59
70534;SHT31;58088;51.186;17.130;2022-11-20T16:19:14;0.63;63.79
70534;SHT31;58088;51.186;17.130;2022-11-20T16:21:41;0.57;63.90
70534;SHT31;58088;51.186;17.130;2022-11-20T16:24:08;0.49;63.99
70534;SHT31;58088;51.186;17.130;2022-11-20T16:26:38;0.43;64.15
70534;SHT31;58088;51.186;17.130;2022-11-20T16:29:05;0.37;64.29
70534;SHT31;58088;51.186;17.130;2022-11-20T16:31:32;0.32;64.37
70534;SHT31;58088;51.186;17.130;2022-11-20T16:34:00;0.27;64.49
70534;SHT31;58088;51.186;17.130;2022-11-20T16:36:31;0.23;64.56
70534;SHT31;58088;51.186;17.130;2022-11-20T16:38:59;0.20;64.69
70534;SHT31;58088;51.186;17.130;2022-11-20T16:41:29;0.18;64.78
70534;SHT31;58088;51.186;17.130;2022-11-20T16:44:00;0.20;64.75
70534;SHT31;58088;51.186;17.130;2022-11-20T16:46:31;0.21;64.83
70534;SHT31;58088;51.186;17.130;2022-11-20T16:49:04;0.24;64.90
70534;SHT31;58088;51.186;17.130;2022-11-20T16:51:35;0.23;64.99
70534;SHT31;58088;51.186;17.130;2022-11-20T16:54:02;0.22;65.11
70534;SHT31;58088;51.186;17.130;2022-11-20T16:56:34;0.17;65.04
70534;SHT31;58088;51.186;17.130;2022-11-20T16:59:00;0.12;65.08
70534;SHT31;58088;51.186;17.130;2022-11-20T17:01:27;0.04;65.34
70534;SHT31;58088;51.186;17.130;2022-11-20T17:03:55;-0.00;65.37
70534;SHT31;58088;51.186;17.130;2022-11-20T17:06:31;-0.06;65.23
70534;SHT31;58088;51.186;17.130;2022-11-20T17:09:00;-0.12;65.39
70534;SHT31;58088;51.186;17.130;2022-11-20T17:11:27;-0.20;65.32
70534;SHT31;58088;51.186;17.130;2022-11-20T17:13:54;-0.26;65.34